Time;durP1;ratioP1;P1;durP2;ratioP2;P2;SDS_P1;SDS_P2;PMS_P1;PMS_P2;Temp;Humidity;BMP_temperature;BMP_pressure;BME280_temperature;BME280_humidity;BME280_pressure;Samples;Min_cycle;Max_cycle;Signal;HPM_P1;HPM_P2
2023/09/16 00:01:37;;;;;;;9.43;8.53;;;22.90;99.90;;;;;;5018519;28;20206;-78
2023/09/16 00:04:04;;;;;;;9.30;8.40;;;22.90;99.90;;;;;;5021778;28;20191;-78
2023/09/16 00:06:29;;;;;;;10.40;9.20;;;22.80;99.90;;;;;;5016063;28;20207;-77
2023/09/16 00:08:55;;;;;;;10.13;9.23;;;22.80;99.90;;;;;;5015823;28;20427;-77
2023/09/16 00:11:22;;;;;;;9.47;8.13;;;22.80;99.90;;;;;;5012046;28;20578;-78
2023/09/16 00:13:48;;;;;;;9.70;8.80;;;22.80;99.90;;;;;;5001778;28;20219;-77
2023/09/16 00:16:15;;;;;;;9.20;8.40;;;22.80;99.90;;;;;;5019289;28;20970;-77
2023/09/16 00:18:41;;;;;;;10.00;9.00;;;22.80;99.90;;;;;;5011933;28;20208;-77
2023/09/16 00:21:07;;;;;;;10.10;9.20;;;22.70;99.90;;;;;;5013527;28;20455;-77
2023/09/16 00:23:32;;;;;;;12.33;8.67;;;22.70;99.90;;;;;;5015037;28;20192;-77
2023/09/16 00:25:58;;;;;;;10.33;9.33;;;22.70;99.90;;;;;;5019529;28;22060;-77
2023/09/16 00:28:27;;;;;;;11.63;8.57;;;22.70;99.90;;;;;;5021088;28;20186;-77
2023/09/16 00:30:53;;;;;;;8.80;8.00;;;22.60;99.90;;;;;;5019574;28;20451;-77
2023/09/16 00:33:18;;;;;;;9.17;8.17;;;22.60;99.90;;;;;;5020011;28;21017;-78
2023/09/16 00:35:44;;;;;;;10.03;8.97;;;22.60;99.90;;;;;;5015873;28;20746;-77
2023/09/16 00:38:10;;;;;;;10.13;9.00;;;22.60;99.90;;;;;;5016301;28;20228;-77
2023/09/16 00:40:37;;;;;;;11.00;8.80;;;22.60;99.90;;;;;;5017637;28;21703;-76
2023/09/16 00:43:03;;;;;;;9.47;8.50;;;22.50;99.90;;;;;;5018840;28;20224;-77
2023/09/16 00:45:28;;;;;;;17.30;9.30;;;22.60;99.90;;;;;;5016028;28;20480;-77
2023/09/16 00:47:54;;;;;;;10.13;8.53;;;22.50;99.90;;;;;;5012571;28;20443;-77
2023/09/16 00:50:20;;;;;;;9.50;8.60;;;22.50;99.90;;;;;;5001130;28;20667;-77
2023/09/16 00:52:57;;;;;;;11.60;8.73;;;22.50;99.90;;;;;;5015281;28;20287;-77
2023/09/16 00:55:23;;;;;;;9.57;8.63;;;22.50;99.90;;;;;;5016594;28;20969;-77
2023/09/16 00:57:52;;;;;;;9.83;8.93;;;22.40;99.90;;;;;;5018384;28;21503;-77
2023/09/16 01:00:18;;;;;;;10.53;9.53;;;22.40;99.90;;;;;;5015695;28;21051;-77
2023/09/16 01:02:44;;;;;;;9.80;8.80;;;22.40;99.90;;;;;;5019965;28;20535;-77
2023/09/16 01:05:15;;;;;;;11.30;8.40;;;22.40;99.90;;;;;;5025983;28;20192;-77
2023/09/16 01:07:41;;;;;;;10.50;8.90;;;22.40;99.90;;;;;;5028116;28;20442;-78
2023/09/16 01:10:09;;;;;;;9.90;8.90;;;22.40;99.90;;;;;;5008243;28;20529;-77
2023/09/16 01:12:35;;;;;;;11.73;10.57;;;22.40;99.90;;;;;;5021974;28;20490;-77
2023/09/16 01:15:00;;;;;;;10.13;8.60;;;22.40;99.90;;;;;;5019339;28;20466;-77
2023/09/16 01:17:33;;;;;;;9.77;8.77;;;22.30;99.90;;;;;;5017417;28;20185;-77
2023/09/16 01:20:11;;;;;;;10.07;9.07;;;22.30;99.90;;;;;;5023912;28;20181;-77
2023/09/16 01:22:39;;;;;;;10.10;9.10;;;22.30;99.90;;;;;;5021587;28;20450;-76
2023/09/16 01:25:06;;;;;;;9.83;8.83;;;22.30;99.90;;;;;;5017229;28;20461;-77
2023/09/16 01:27:32;;;;;;;10.50;9.33;;;22.20;99.90;;;;;;5018141;28;20446;-77
2023/09/16 01:29:58;;;;;;;10.50;9.50;;;22.20;99.90;;;;;;4996492;28;20454;-77
2023/09/16 01:32:31;;;;;;;10.73;9.73;;;22.20;99.90;;;;;;5025991;28;20246;-77
2023/09/16 01:35:01;;;;;;;8.87;8.07;;;22.10;99.90;;;;;;5020495;28;20490;-77
2023/09/16 01:37:29;;;;;;;9.00;8.20;;;22.10;99.90;;;;;;5023625;28;20508;-76
2023/09/16 01:39:59;;;;;;;10.57;8.97;;;22.10;99.90;;;;;;5002629;28;20526;-76
2023/09/16 01:42:28;;;;;;;10.30;9.27;;;22.10;99.90;;;;;;5000628;28;20458;-76
2023/09/16 01:44:54;;;;;;;10.87;8.50;;;22.00;99.90;;;;;;5002363;28;20427;-76
2023/09/16 01:47:21;;;;;;;10.97;9.97;;;22.00;99.90;;;;;;5021845;28;20416;-77
2023/09/16 01:49:47;;;;;;;11.30;9.40;;;22.00;99.90;;;;;;5021989;28;20264;-77
2023/09/16 01:52:13;;;;;;;11.53;9.60;;;22.00;99.90;;;;;;5020236;28;20454;-78
2023/09/16 01:54:38;;;;;;;12.63;10.00;;;21.90;99.90;;;;;;5031826;28;20505;-78
2023/09/16 01:57:04;;;;;;;10.57;9.30;;;21.90;99.90;;;;;;5015926;28;20189;-78
2023/09/16 01:59:30;;;;;;;10.43;8.77;;;21.90;99.90;;;;;;5017978;28;20211;-77
2023/09/16 02:01:55;;;;;;;12.60;9.40;;;21.90;99.90;;;;;;5029632;28;20614;-78
2023/09/16 02:04:21;;;;;;;11.13;10.03;;;21.90;99.90;;;;;;5018070;28;20761;-76
2023/09/16 02:06:46;;;;;;;12.97;9.60;;;21.80;99.90;;;;;;5010431;28;20665;-77
2023/09/16 02:09:13;;;;;;;10.37;9.30;;;21.70;99.90;;;;;;4998331;28;20188;-76
2023/09/16 02:11:39;;;;;;;10.70;9.23;;;21.60;99.90;;;;;;5015209;28;20388;-78
2023/09/16 02:14:05;;;;;;;11.77;9.13;;;21.60;99.90;;;;;;5017943;28;20529;-77
2023/09/16 02:16:31;;;;;;;10.40;8.87;;;21.50;99.90;;;;;;5013328;28;20204;-77
2023/09/16 02:18:57;;;;;;;8.83;8.03;;;21.40;99.90;;;;;;5020307;28;20480;-77
2023/09/16 02:21:23;;;;;;;10.50;8.20;;;21.30;99.90;;;;;;5021675;28;21258;-78
2023/09/16 02:23:48;;;;;;;9.30;8.30;;;21.30;99.90;;;;;;5018763;28;20616;-78
2023/09/16 02:26:14;;;;;;;9.07;8.17;;;21.20;99.90;;;;;;5019764;28;20177;-79
2023/09/16 02:28:40;;;;;;;10.37;9.37;;;21.20;99.90;;;;;;5026084;28;20195;-79
2023/09/16 02:31:09;;;;;;;10.27;8.90;;;21.10;99.90;;;;;;5004637;28;20188;-79
2023/09/16 02:33:35;;;;;;;8.20;7.40;;;21.00;99.90;;;;;;5018462;28;20264;-78
2023/09/16 02:36:01;;;;;;;8.83;8.00;;;20.90;99.90;;;;;;5023265;28;20517;-78
2023/09/16 02:38:26;;;;;;;9.90;8.10;;;20.90;99.90;;;;;;5023266;28;20412;-79
2023/09/16 02:40:52;;;;;;;16.13;9.97;;;20.80;99.90;;;;;;5019469;28;20190;-78
2023/09/16 02:43:18;;;;;;;9.97;8.80;;;20.80;99.90;;;;;;5017997;28;20181;-78
2023/09/16 02:45:43;;;;;;;9.13;8.03;;;20.70;99.90;;;;;;5021259;28;20212;-78
2023/09/16 02:48:09;;;;;;;10.30;9.30;;;20.70;99.90;;;;;;5003827;28;20188;-77
2023/09/16 02:50:37;;;;;;;9.40;7.30;;;20.80;99.90;;;;;;5018044;28;20559;-77
2023/09/16 02:53:03;;;;;;;8.83;8.00;;;20.80;99.90;;;;;;5008573;28;20644;-78
2023/09/16 02:55:31;;;;;;;8.77;7.97;;;20.80;99.90;;;;;;5017405;28;20469;-78
2023/09/16 02:57:57;;;;;;;9.37;8.47;;;20.80;99.90;;;;;;5017828;28;20604;-78
2023/09/16 03:00:23;;;;;;;9.40;8.50;;;20.80;99.90;;;;;;5016746;28;20443;-77
2023/09/16 03:02:49;;;;;;;10.00;9.10;;;20.80;99.90;;;;;;5015236;28;20470;-76
2023/09/16 03:05:15;;;;;;;9.43;8.43;;;20.90;99.90;;;;;;5012659;28;20180;-77
2023/09/16 03:07:41;;;;;;;10.10;9.10;;;20.90;99.90;;;;;;5014982;28;20428;-77
2023/09/16 03:10:07;;;;;;;9.17;8.20;;;20.90;99.90;;;;;;5016059;28;20447;-77
2023/09/16 03:12:33;;;;;;;8.73;7.93;;;20.90;99.90;;;;;;5016121;28;20243;-76
2023/09/16 03:14:58;;;;;;;9.07;8.27;;;20.90;99.90;;;;;;5016839;28;21298;-77
2023/09/16 03:17:24;;;;;;;10.50;8.10;;;20.90;99.90;;;;;;5015863;28;20185;-77
2023/09/16 03:19:50;;;;;;;9.83;8.83;;;20.90;99.90;;;;;;5018636;28;20187;-77
2023/09/16 03:22:16;;;;;;;9.70;8.80;;;20.90;99.90;;;;;;5028773;28;20234;-78
2023/09/16 03:24:43;;;;;;;9.60;8.40;;;20.90;99.90;;;;;;5016681;28;20173;-75
2023/09/16 03:27:08;;;;;;;8.73;7.60;;;20.90;99.90;;;;;;5014450;28;20177;-76
2023/09/16 03:29:34;;;;;;;9.90;8.90;;;20.90;99.90;;;;;;5018754;28;21791;-77
2023/09/16 03:32:00;;;;;;;9.67;8.67;;;20.90;99.90;;;;;;5014689;28;20219;-77
2023/09/16 03:34:25;;;;;;;8.90;8.10;;;20.90;99.90;;;;;;5017380;28;20180;-77
2023/09/16 03:36:51;;;;;;;10.27;9.27;;;20.90;99.90;;;;;;4999735;28;20196;-77
2023/09/16 03:39:17;;;;;;;9.10;8.10;;;20.90;99.90;;;;;;5018314;28;20172;-76
2023/09/16 03:41:42;;;;;;;9.50;8.60;;;20.80;99.90;;;;;;5017578;28;20208;-78
2023/09/16 03:44:09;;;;;;;9.67;8.67;;;20.80;99.90;;;;;;5014400;28;20231;-77
2023/09/16 03:46:35;;;;;;;9.37;8.47;;;20.90;99.90;;;;;;5000204;28;20710;-78
2023/09/16 03:49:01;;;;;;;8.80;7.90;;;20.90;99.90;;;;;;5014780;28;20443;-78
2023/09/16 03:51:27;;;;;;;9.50;8.60;;;20.90;99.90;;;;;;5015488;28;20200;-78
2023/09/16 03:53:53;;;;;;;10.20;9.20;;;20.90;99.90;;;;;;4996576;28;20667;-78
2023/09/16 03:56:19;;;;;;;10.30;9.30;;;20.80;99.90;;;;;;5016035;28;20459;-76
2023/09/16 03:58:45;;;;;;;10.47;9.43;;;20.80;99.90;;;;;;5015356;28;20458;-78
2023/09/16 04:01:10;;;;;;;9.30;8.40;;;20.80;99.90;;;;;;5017703;28;20199;-77
2023/09/16 04:03:36;;;;;;;12.10;8.80;;;20.80;99.90;;;;;;5017365;28;20192;-77
2023/09/16 04:06:03;;;;;;;10.50;8.67;;;20.80;99.90;;;;;;5018692;28;20589;-78
2023/09/16 04:08:30;;;;;;;8.93;8.13;;;20.80;99.90;;;;;;5016108;28;20206;-77
2023/09/16 04:10:56;;;;;;;9.40;8.50;;;20.80;99.90;;;;;;5014603;28;20434;-80
2023/09/16 04:13:22;;;;;;;9.77;8.77;;;20.80;99.90;;;;;;5004258;28;20431;-77
2023/09/16 04:15:49;;;;;;;9.10;8.30;;;20.80;99.90;;;;;;5021099;28;20463;-77
2023/09/16 04:18:15;;;;;;;13.63;8.10;;;20.80;99.90;;;;;;5019068;28;20976;-76
2023/09/16 04:20:41;;;;;;;10.67;9.57;;;20.80;99.90;;;;;;5018113;28;20407;-76
2023/09/16 04:23:06;;;;;;;11.60;9.07;;;20.80;99.90;;;;;;5018573;28;20228;-79
2023/09/16 04:25:32;;;;;;;9.60;8.70;;;20.80;99.90;;;;;;5003243;28;20234;-76
2023/09/16 04:27:58;;;;;;;9.77;8.77;;;20.70;99.90;;;;;;5015483;28;20189;-77
2023/09/16 04:30:23;;;;;;;10.60;9.33;;;20.70;99.90;;;;;;5020606;28;20216;-77
2023/09/16 04:32:49;;;;;;;9.87;8.43;;;20.70;99.90;;;;;;5020124;28;20569;-77
2023/09/16 04:35:15;;;;;;;10.53;9.03;;;20.70;99.90;;;;;;5035537;28;20262;-76
2023/09/16 04:37:40;;;;;;;10.10;8.83;;;20.70;99.90;;;;;;5000954;28;20188;-77
2023/09/16 04:40:12;;;;;;;9.80;8.83;;;20.70;99.90;;;;;;5013906;28;20185;-77
2023/09/16 04:42:38;;;;;;;10.90;8.90;;;20.70;99.90;;;;;;4995886;28;20671;-76
2023/09/16 04:45:05;;;;;;;10.07;8.90;;;20.70;99.90;;;;;;5017011;28;20438;-76
2023/09/16 04:47:31;;;;;;;9.60;8.70;;;20.70;99.90;;;;;;4997423;28;20423;-75
2023/09/16 04:49:57;;;;;;;9.97;8.97;;;20.70;99.90;;;;;;5011973;28;20442;-75
2023/09/16 04:52:25;;;;;;;10.43;8.17;;;20.70;99.90;;;;;;5015386;28;21144;-76
2023/09/16 04:54:53;;;;;;;12.43;9.17;;;20.70;99.90;;;;;;5014271;28;20190;-75
2023/09/16 04:57:22;;;;;;;9.90;8.90;;;20.60;99.90;;;;;;5010348;28;20431;-76
2023/09/16 04:59:48;;;;;;;10.97;9.97;;;20.60;99.90;;;;;;5020022;28;20875;-75
2023/09/16 05:02:14;;;;;;;9.53;8.53;;;20.60;99.90;;;;;;5008825;28;20570;-78
2023/09/16 05:04:40;;;;;;;10.30;9.20;;;20.60;99.90;;;;;;5013067;28;20537;-76
2023/09/16 05:07:06;;;;;;;10.93;9.13;;;20.60;99.90;;;;;;5025666;28;20454;-77
2023/09/16 05:09:32;;;;;;;9.97;8.97;;;20.60;99.90;;;;;;5017955;28;20200;-75
2023/09/16 05:11:58;;;;;;;9.63;8.70;;;20.60;99.90;;;;;;5016910;28;20473;-77
2023/09/16 05:14:26;;;;;;;11.00;9.80;;;20.60;99.90;;;;;;5012623;28;20435;-77
2023/09/16 05:16:52;;;;;;;10.30;9.30;;;20.60;99.90;;;;;;5017105;28;20287;-77
2023/09/16 05:19:18;;;;;;;9.83;8.87;;;20.50;99.90;;;;;;5021045;28;20545;-78
2023/09/16 05:21:43;;;;;;;11.83;10.37;;;20.50;99.90;;;;;;4996931;28;20203;-78
2023/09/16 05:24:09;;;;;;;10.73;9.40;;;20.50;99.90;;;;;;5015530;28;20640;-77
2023/09/16 05:26:35;;;;;;;10.63;9.60;;;20.50;99.90;;;;;;5014555;28;20266;-77
2023/09/16 05:29:00;;;;;;;10.87;9.77;;;20.50;99.90;;;;;;5004789;28;20214;-77
2023/09/16 05:31:26;;;;;;;10.90;9.77;;;20.50;99.90;;;;;;5014437;28;20452;-76
2023/09/16 05:33:52;;;;;;;10.97;9.87;;;20.50;99.90;;;;;;5023764;28;20181;-76
2023/09/16 05:36:20;;;;;;;11.40;10.30;;;20.50;99.90;;;;;;5004489;28;21000;-77
2023/09/16 05:38:45;;;;;;;12.33;10.83;;;20.50;99.90;;;;;;5021580;28;20769;-77
2023/09/16 05:41:11;;;;;;;12.73;11.20;;;20.50;99.90;;;;;;5007031;28;20526;-78
2023/09/16 05:43:37;;;;;;;10.03;9.03;;;20.50;99.90;;;;;;5026742;28;20218;-76
2023/09/16 05:46:02;;;;;;;11.07;9.57;;;20.50;99.90;;;;;;5025443;28;20208;-77
2023/09/16 05:48:28;;;;;;;10.93;9.83;;;20.50;99.90;;;;;;5033801;28;20191;-77
2023/09/16 05:50:56;;;;;;;10.67;9.63;;;20.50;99.90;;;;;;5030840;28;20246;-78
2023/09/16 05:53:22;;;;;;;11.57;9.63;;;20.50;99.90;;;;;;5031497;28;20745;-78
2023/09/16 05:55:47;;;;;;;9.50;8.57;;;20.50;99.90;;;;;;5020917;28;20489;-76
2023/09/16 05:58:13;;;;;;;10.73;9.57;;;20.50;99.90;;;;;;5028735;28;20200;-79
2023/09/16 06:00:39;;;;;;;12.63;9.70;;;20.50;99.90;;;;;;5064438;28;20181;-78
2023/09/16 06:03:04;;;;;;;11.63;10.40;;;20.50;99.90;;;;;;5040381;28;20254;-79
2023/09/16 06:05:30;;;;;;;10.00;9.10;;;20.50;99.90;;;;;;5030030;28;20181;-78
2023/09/16 06:07:56;;;;;;;10.17;9.27;;;20.60;99.90;;;;;;5018603;28;20571;-79
2023/09/16 06:10:22;;;;;;;10.27;9.17;;;20.50;99.90;;;;;;4992937;28;20216;-81
2023/09/16 06:12:47;;;;;;;9.77;8.63;;;20.60;99.90;;;;;;5002460;28;20498;-76
2023/09/16 06:15:13;;;;;;;10.73;9.00;;;20.60;99.90;;;;;;5017101;28;20252;-75
2023/09/16 06:17:39;;;;;;;11.10;9.40;;;20.50;99.90;;;;;;5011013;28;20185;-75
2023/09/16 06:20:05;;;;;;;11.83;10.63;;;20.50;99.90;;;;;;5011714;28;20267;-76
2023/09/16 06:22:31;;;;;;;10.50;9.40;;;20.50;99.90;;;;;;5003956;28;20240;-74
2023/09/16 06:24:56;;;;;;;10.07;9.07;;;20.50;99.90;;;;;;5015075;28;20467;-75
2023/09/16 06:27:22;;;;;;;11.73;9.23;;;20.50;99.90;;;;;;5015301;28;20185;-78
2023/09/16 06:29:48;;;;;;;10.50;9.40;;;20.60;99.90;;;;;;5015301;28;20649;-74
2023/09/16 06:32:14;;;;;;;10.93;9.80;;;20.60;99.90;;;;;;5016333;28;20254;-75
2023/09/16 06:34:40;;;;;;;11.73;10.40;;;20.60;99.90;;;;;;5014834;28;20458;-73
2023/09/16 06:37:06;;;;;;;11.53;10.33;;;20.60;99.90;;;;;;5019026;28;20220;-78
2023/09/16 06:39:32;;;;;;;10.97;9.80;;;20.60;99.90;;;;;;5018145;28;20185;-74
2023/09/16 06:41:58;;;;;;;11.07;10.03;;;20.60;99.90;;;;;;5014739;28;20207;-76
2023/09/16 06:44:24;;;;;;;10.60;9.10;;;20.60;99.90;;;;;;5005556;28;20521;-75
2023/09/16 06:46:49;;;;;;;10.70;9.63;;;20.60;99.90;;;;;;5016381;28;20192;-73
2023/09/16 06:49:17;;;;;;;10.50;9.40;;;20.60;99.90;;;;;;5020529;28;20185;-74
2023/09/16 06:51:43;;;;;;;11.00;9.00;;;20.60;99.90;;;;;;5022266;28;20887;-74
2023/09/16 06:54:08;;;;;;;10.93;9.83;;;20.60;99.90;;;;;;5022577;28;20415;-76
2023/09/16 06:56:34;;;;;;;10.63;9.60;;;20.60;99.90;;;;;;5022088;28;20216;-74
2023/09/16 06:59:01;;;;;;;10.30;9.30;;;20.60;99.90;;;;;;5017944;28;20553;-73
2023/09/16 07:01:27;;;;;;;10.90;9.80;;;20.70;99.90;;;;;;5022747;28;20625;-73
2023/09/16 07:03:53;;;;;;;10.73;9.63;;;20.70;99.90;;;;;;5000910;28;20945;-73
2023/09/16 07:06:18;;;;;;;9.83;8.93;;;20.80;99.90;;;;;;5018725;28;20446;-74
2023/09/16 07:08:44;;;;;;;10.40;9.40;;;20.80;99.90;;;;;;5019796;28;20212;-74
2023/09/16 07:11:12;;;;;;;11.67;9.93;;;20.80;99.90;;;;;;5026598;28;21586;-73
2023/09/16 07:13:38;;;;;;;10.67;9.30;;;20.90;99.90;;;;;;5018282;28;20667;-75
2023/09/16 07:16:04;;;;;;;10.47;9.37;;;20.90;99.90;;;;;;5005303;28;20489;-74
2023/09/16 07:18:31;;;;;;;10.87;9.80;;;20.90;99.90;;;;;;5021820;28;20419;-75
2023/09/16 07:20:56;;;;;;;11.40;10.17;;;21.00;99.90;;;;;;5022492;28;20941;-74
2023/09/16 07:23:22;;;;;;;11.40;10.20;;;21.00;99.90;;;;;;4999473;28;20466;-75
2023/09/16 07:26:14;;;;;;;11.70;10.60;;;21.00;99.90;;;;;;5020249;28;20181;-74
2023/09/16 07:28:40;;;;;;;11.53;10.07;;;21.10;99.90;;;;;;5015491;28;20274;-74
2023/09/16 07:31:05;;;;;;;14.80;10.53;;;21.10;99.90;;;;;;5024296;28;21120;-74
2023/09/16 07:33:31;;;;;;;12.00;10.33;;;21.10;99.90;;;;;;4996203;28;20607;-74
2023/09/16 07:35:57;;;;;;;11.43;10.33;;;21.20;99.90;;;;;;5006288;28;20204;-75
2023/09/16 07:38:23;;;;;;;10.53;9.43;;;21.20;99.90;;;;;;5021137;28;20271;-74
2023/09/16 07:40:52;;;;;;;11.13;9.97;;;21.20;99.90;;;;;;5019277;28;20191;-75
2023/09/16 07:43:18;;;;;;;10.60;9.50;;;21.30;99.90;;;;;;5020194;28;20428;-74
2023/09/16 07:45:44;;;;;;;13.60;9.90;;;21.30;99.90;;;;;;5006201;28;20431;-76
2023/09/16 07:48:10;;;;;;;11.47;10.37;;;21.30;99.90;;;;;;5016816;28;20584;-76
2023/09/16 07:50:35;;;;;;;10.90;9.70;;;21.40;99.90;;;;;;5000642;28;20615;-74
2023/09/16 07:53:01;;;;;;;13.23;9.43;;;21.40;99.90;;;;;;5022594;28;20231;-74
2023/09/16 07:55:27;;;;;;;15.90;10.03;;;21.50;99.90;;;;;;5020436;28;20662;-75
2023/09/16 07:57:52;;;;;;;15.73;10.90;;;21.50;99.90;;;;;;5018111;28;20190;-75
2023/09/16 08:00:18;;;;;;;10.00;9.00;;;21.50;99.90;;;;;;5013363;28;20189;-74
2023/09/16 08:02:43;;;;;;;10.80;9.80;;;21.60;99.90;;;;;;5018813;28;20208;-73
2023/09/16 08:05:09;;;;;;;10.00;8.10;;;21.60;99.90;;;;;;5033223;28;20279;-75
2023/09/16 08:07:35;;;;;;;10.97;9.97;;;21.70;99.90;;;;;;5024251;28;20196;-73
2023/09/16 08:10:01;;;;;;;10.00;9.10;;;21.80;99.90;;;;;;5020076;28;20238;-75
2023/09/16 08:12:27;;;;;;;10.17;9.13;;;21.80;99.90;;;;;;5022876;28;20228;-74
2023/09/16 08:14:53;;;;;;;10.00;8.80;;;21.80;99.90;;;;;;5022370;28;20458;-76
2023/09/16 08:17:18;;;;;;;10.00;9.10;;;21.90;99.90;;;;;;5032836;28;20208;-75
2023/09/16 08:19:44;;;;;;;9.03;8.23;;;22.00;99.90;;;;;;5017886;28;20194;-75
2023/09/16 08:22:09;;;;;;;10.97;9.93;;;22.00;99.90;;;;;;5021600;28;20200;-74
2023/09/16 08:24:35;;;;;;;12.27;11.07;;;22.00;99.90;;;;;;5026104;28;20212;-74
2023/09/16 08:27:01;;;;;;;16.70;15.20;;;22.10;99.90;;;;;;5019855;28;20195;-74
2023/09/16 08:29:27;;;;;;;9.70;8.70;;;22.20;99.90;;;;;;5018070;28;20211;-74
2023/09/16 08:31:53;;;;;;;11.70;9.43;;;22.30;99.90;;;;;;5019549;28;20213;-74
2023/09/16 08:34:18;;;;;;;12.00;10.77;;;22.30;99.90;;;;;;5019395;28;20861;-75
2023/09/16 08:36:44;;;;;;;9.77;8.80;;;22.30;99.90;;;;;;5018846;28;20884;-74
2023/09/16 08:39:10;;;;;;;9.53;8.63;;;22.40;99.90;;;;;;5019543;28;20181;-74
2023/09/16 08:41:53;;;;;;;9.43;8.47;;;22.40;99.90;;;;;;4995783;28;20291;-75
2023/09/16 08:44:23;;;;;;;11.40;9.43;;;22.50;99.90;;;;;;5015234;28;20434;-76
2023/09/16 08:46:57;;;;;;;15.50;8.93;;;22.60;99.90;;;;;;5021869;28;20550;-74
2023/09/16 08:49:27;;;;;;;8.60;7.80;;;22.60;99.90;;;;;;5017661;28;20974;-76
2023/09/16 08:51:58;;;;;;;10.80;9.10;;;22.70;99.90;;;;;;5021110;28;20847;-74
2023/09/16 08:54:26;;;;;;;8.93;8.03;;;22.80;99.90;;;;;;5018530;28;20478;-74
2023/09/16 08:56:51;;;;;;;8.80;7.90;;;22.80;99.90;;;;;;5011241;28;20474;-73
2023/09/16 08:59:18;;;;;;;10.10;9.20;;;22.90;99.90;;;;;;5014359;28;20512;-74
2023/09/16 09:01:45;;;;;;;9.93;9.03;;;23.00;99.90;;;;;;5031970;28;20189;-73
2023/09/16 09:04:12;;;;;;;10.10;9.20;;;23.00;99.90;;;;;;4996346;28;20437;-74
2023/09/16 09:06:39;;;;;;;8.83;8.03;;;23.10;99.90;;;;;;4984570;28;20434;-74
2023/09/16 09:09:04;;;;;;;9.13;8.33;;;23.20;99.90;;;;;;5016685;28;20435;-73
2023/09/16 09:11:31;;;;;;;10.97;8.53;;;23.20;99.90;;;;;;5016010;28;20562;-74
2023/09/16 09:13:59;;;;;;;9.17;8.27;;;23.30;99.90;;;;;;5015896;28;20623;-76
2023/09/16 09:16:28;;;;;;;9.50;8.50;;;23.30;99.90;;;;;;5019546;28;20471;-73
2023/09/16 09:18:56;;;;;;;8.70;7.90;;;23.40;99.90;;;;;;5021252;28;20775;-74
2023/09/16 09:21:22;;;;;;;9.63;8.73;;;23.40;99.90;;;;;;5028269;28;20478;-75
2023/09/16 09:23:47;;;;;;;10.80;9.80;;;23.40;99.90;;;;;;5015587;28;20434;-76
2023/09/16 09:26:14;;;;;;;10.83;8.47;;;23.60;99.90;;;;;;5026727;28;20320;-76
2023/09/16 09:28:43;;;;;;;10.17;9.27;;;23.70;99.90;;;;;;5017507;28;20185;-73
2023/09/16 09:31:09;;;;;;;12.00;10.90;;;23.70;99.90;;;;;;5002196;28;20418;-74
2023/09/16 09:33:42;;;;;;;9.63;7.87;;;23.70;99.90;;;;;;5015633;28;21086;-76
2023/09/16 09:36:17;;;;;;;10.43;9.43;;;23.80;99.90;;;;;;5017032;28;20464;-75
2023/09/16 09:38:44;;;;;;;9.77;8.77;;;24.00;99.90;;;;;;5015683;28;20434;-75
2023/09/16 09:41:11;;;;;;;9.80;8.90;;;24.00;99.90;;;;;;5021047;28;20482;-75
2023/09/16 09:43:37;;;;;;;10.10;9.20;;;24.00;99.90;;;;;;5018025;28;20838;-75
2023/09/16 09:46:02;;;;;;;10.13;9.10;;;24.00;99.90;;;;;;5017773;28;20494;-76
2023/09/16 09:48:33;;;;;;;10.80;8.90;;;24.10;99.90;;;;;;5015631;28;20221;-75
2023/09/16 09:51:00;;;;;;;18.57;16.80;;;24.20;99.90;;;;;;5004683;28;20493;-74
2023/09/16 09:53:26;;;;;;;12.93;8.80;;;24.20;99.90;;;;;;5021887;28;20438;-75
2023/09/16 09:55:53;;;;;;;10.00;9.00;;;24.40;99.90;;;;;;5036388;28;20546;-77
2023/09/16 09:58:19;;;;;;;9.37;8.47;;;24.40;99.90;;;;;;5017476;28;20457;-75
2023/09/16 10:00:50;;;;;;;9.73;7.53;;;24.50;99.90;;;;;;5022771;28;20477;-75
2023/09/16 10:03:17;;;;;;;10.37;9.27;;;24.60;99.90;;;;;;5006984;28;20877;-77
2023/09/16 10:05:43;;;;;;;10.40;9.40;;;24.60;99.90;;;;;;5026319;28;20476;-74
2023/09/16 10:08:10;;;;;;;10.50;9.50;;;24.70;99.90;;;;;;5004095;28;20416;-74
2023/09/16 10:10:36;;;;;;;8.77;7.97;;;24.70;99.90;;;;;;5020753;28;20243;-74
2023/09/16 10:13:03;;;;;;;9.37;8.50;;;24.80;99.90;;;;;;5017845;28;20462;-74
2023/09/16 10:15:36;;;;;;;8.40;7.70;;;24.90;99.90;;;;;;5019690;28;20463;-75
2023/09/16 10:18:03;;;;;;;9.10;8.27;;;24.90;99.90;;;;;;5002619;28;20428;-76
2023/09/16 10:20:31;;;;;;;8.97;8.17;;;25.00;99.90;;;;;;5018926;28;20423;-75
2023/09/16 10:22:59;;;;;;;8.83;7.93;;;25.10;99.90;;;;;;5022448;28;20534;-76
2023/09/16 10:25:27;;;;;;;8.83;7.93;;;25.20;99.90;;;;;;5026671;28;20877;-75
2023/09/16 10:28:04;;;;;;;8.33;7.60;;;25.30;99.90;;;;;;5015304;28;20986;-76
2023/09/16 10:30:32;;;;;;;7.90;7.10;;;25.30;99.90;;;;;;5019122;28;21207;-74
2023/09/16 10:33:06;;;;;;;8.33;7.53;;;25.40;99.90;;;;;;5019443;28;20510;-74
2023/09/16 10:35:33;;;;;;;8.93;7.60;;;25.50;99.90;;;;;;5017559;28;20463;-76
2023/09/16 10:38:02;;;;;;;8.73;7.90;;;25.60;99.90;;;;;;5022714;28;20424;-75
2023/09/16 10:40:29;;;;;;;8.40;7.60;;;25.60;99.90;;;;;;5006168;28;20439;-77
2023/09/16 10:42:57;;;;;;;8.67;7.90;;;25.70;99.90;;;;;;5018301;28;20449;-76
2023/09/16 10:45:25;;;;;;;8.20;7.50;;;25.80;99.90;;;;;;5004600;28;20433;-74
2023/09/16 10:47:52;;;;;;;8.40;7.60;;;25.80;99.90;;;;;;5026181;28;20426;-74
2023/09/16 10:50:20;;;;;;;9.40;7.20;;;26.00;99.90;;;;;;5006968;28;20553;-74
2023/09/16 10:52:50;;;;;;;7.30;6.70;;;26.20;99.90;;;;;;5021505;28;20982;-74
2023/09/16 10:55:39;;;;;;;8.33;7.53;;;26.20;99.90;;;;;;5027209;28;20470;-74
2023/09/16 10:58:29;;;;;;;9.57;8.63;;;26.40;99.90;;;;;;5019315;28;20432;-74
2023/09/16 11:00:58;;;;;;;9.07;8.17;;;26.50;99.90;;;;;;5032995;28;20412;-76
2023/09/16 11:03:30;;;;;;;6.87;6.20;;;26.60;99.90;;;;;;5017858;28;20444;-74
2023/09/16 11:05:58;;;;;;;10.63;9.73;;;26.70;99.90;;;;;;5017385;28;20459;-75
2023/09/16 11:08:25;;;;;;;7.57;6.73;;;26.90;99.90;;;;;;5022163;28;20411;-74
2023/09/16 11:10:52;;;;;;;8.33;7.53;;;27.00;99.90;;;;;;5022566;28;20466;-75
2023/09/16 11:13:19;;;;;;;7.03;6.33;;;27.20;99.90;;;;;;5022191;28;20438;-74
2023/09/16 11:15:46;;;;;;;7.47;6.63;;;27.40;99.90;;;;;;5022598;28;20468;-75
2023/09/16 11:18:17;;;;;;;7.80;7.10;;;27.50;99.90;;;;;;5038564;28;20473;-75
2023/09/16 11:20:43;;;;;;;64.87;58.10;;;27.60;99.90;;;;;;5024161;28;20491;-74
2023/09/16 11:23:10;;;;;;;11.63;10.50;;;27.70;99.90;;;;;;5024525;28;20475;-75
2023/09/16 11:25:37;;;;;;;8.47;7.40;;;27.80;99.90;;;;;;5007007;28;20188;-75
2023/09/16 11:28:08;;;;;;;12.17;9.93;;;27.80;99.90;;;;;;5033201;28;20435;-75
2023/09/16 11:30:36;;;;;;;10.30;8.77;;;27.90;99.90;;;;;;5034160;28;20427;-77
2023/09/16 11:33:03;;;;;;;10.90;9.80;;;28.00;99.90;;;;;;5016261;28;20483;-75
2023/09/16 11:35:29;;;;;;;9.10;8.30;;;27.90;99.90;;;;;;5030261;28;20506;-75
2023/09/16 11:37:56;;;;;;;7.10;6.40;;;28.00;99.90;;;;;;5026083;28;20927;-74
2023/09/16 11:40:34;;;;;;;6.40;5.80;;;28.10;99.90;;;;;;5019372;28;20192;-74
2023/09/16 11:43:00;;;;;;;6.63;6.10;;;28.30;99.90;;;;;;5002210;28;20443;-74
2023/09/16 11:45:28;;;;;;;6.20;5.70;;;28.30;99.90;;;;;;5020408;28;20424;-75
2023/09/16 11:47:54;;;;;;;8.57;7.33;;;28.50;99.90;;;;;;5023409;28;20430;-74
2023/09/16 11:50:21;;;;;;;6.53;5.90;;;28.60;99.90;;;;;;5021029;28;20434;-73
2023/09/16 11:52:47;;;;;;;7.33;6.53;;;28.80;99.90;;;;;;5021201;28;20204;-74
2023/09/16 11:55:13;;;;;;;6.50;5.90;;;29.00;99.90;;;;;;5024520;28;20434;-75
2023/09/16 11:57:39;;;;;;;7.10;5.60;;;29.20;99.90;;;;;;5017558;28;20439;-74
2023/09/16 12:00:07;;;;;;;6.03;5.53;;;29.30;99.90;;;;;;5020512;28;20427;-76
2023/09/16 12:02:33;;;;;;;6.40;5.90;;;29.50;99.90;;;;;;5020516;28;20216;-74
2023/09/16 12:05:02;;;;;;;9.33;6.50;;;29.60;99.90;;;;;;5023002;28;20415;-74
2023/09/16 12:07:31;;;;;;;6.70;6.00;;;29.90;99.90;;;;;;5019649;28;20460;-74
2023/09/16 12:10:01;;;;;;;6.67;6.07;;;30.00;99.90;;;;;;5009982;28;20443;-74
2023/09/16 12:12:27;;;;;;;5.97;5.47;;;30.10;99.90;;;;;;5034177;28;20438;-74
2023/09/16 12:14:53;;;;;;;5.67;5.17;;;30.20;99.90;;;;;;5009961;28;20442;-75
2023/09/16 12:17:19;;;;;;;5.67;5.17;;;30.30;99.90;;;;;;5019392;28;20880;-76
2023/09/16 12:19:52;;;;;;;5.80;5.30;;;30.60;99.90;;;;;;5003205;28;20648;-77
2023/09/16 12:22:18;;;;;;;5.83;5.17;;;30.70;99.90;;;;;;5022739;28;20196;-75
2023/09/16 12:24:44;;;;;;;7.40;6.70;;;31.10;99.10;;;;;;5016212;28;20437;-77
2023/09/16 12:27:11;;;;;;;5.87;5.37;;;31.20;98.10;;;;;;5020116;28;20431;-74
2023/09/16 12:29:36;;;;;;;5.70;5.20;;;31.40;97.40;;;;;;5019034;28;20450;-74
2023/09/16 12:32:16;;;;;;;5.40;4.90;;;31.40;96.20;;;;;;5014577;28;20460;-77
2023/09/16 12:34:41;;;;;;;6.70;6.10;;;31.30;95.60;;;;;;5017644;28;20216;-74
2023/09/16 12:37:07;;;;;;;6.67;5.97;;;31.20;95.30;;;;;;5006931;28;20588;-74
2023/09/16 12:39:34;;;;;;;10.17;6.27;;;31.10;95.20;;;;;;5016598;28;20656;-75